Terminal Aerodrome Forecast
Issued by NWS

Home | Current Version | Previous Version | Graphics & Text | Print | Product List | Glossary On
Versions: 1 2 3 4 5 6 7 8 9 10 11 12 13 14 15 16 17 18 19 20 21 22 23 24 25 26 27 28 29 30 31
000
FTUS43 KBIS 280100 AAA
TAFMOT
TAF AMD
KMOT 280135Z 2802/2824 05007KT P6SM BKN030
     FM280400 09004KT 4SM BR BKN015
      TEMPO 2808/2812 2SM BR OVC009
     FM281300 17009KT P6SM BKN011
     FM281600 17013KT P6SM BKN150
     FM281900 19019G28KT P6SM BKN230=

USA.gov is the U.S. government's official web portal to all federal, state and local government web resources and services.